createdAt,value
2019-05-03T00:02:29.136Z,30.53
2019-05-03T00:05:28.133Z,29.53
2019-05-03T00:08:08.685Z,27.33
2019-05-03T00:10:39.127Z,31.30
2019-05-03T00:13:09.085Z,27.40
2019-05-03T00:15:56.054Z,27.67
2019-05-03T00:18:25.420Z,30.33
2019-05-03T00:20:54.629Z,26.67
2019-05-03T00:23:23.788Z,34.43
2019-05-03T00:25:52.995Z,27.30
2019-05-03T00:28:22.276Z,27.30
2019-05-03T00:30:51.945Z,28.27
2019-05-03T00:33:22.509Z,30.07
2019-05-03T00:36:02.481Z,27.53
2019-05-03T00:38:32.509Z,29.63
2019-05-03T00:41:01.923Z,24.83
2019-05-03T00:43:33.142Z,27.57
2019-05-03T00:46:02.420Z,27.63
2019-05-03T00:48:32.647Z,26.80
2019-05-03T00:51:02.388Z,30.63
2019-05-03T00:53:32.324Z,26.33
2019-05-03T00:56:01.822Z,27.57
2019-05-03T00:58:31.794Z,28.07
2019-05-03T01:01:02.713Z,30.37
2019-05-03T01:03:32.611Z,27.33
2019-05-03T01:06:02.585Z,28.37
2019-05-03T01:08:32.654Z,29.30
2019-05-03T01:11:02.213Z,28.70
2019-05-03T01:13:32.058Z,25.10
2019-05-03T01:16:11.786Z,29.17
2019-05-03T01:18:41.770Z,28.30
2019-05-03T01:21:11.673Z,26.93
2019-05-03T01:23:42.050Z,25.47
2019-05-03T01:26:11.915Z,27.23
2019-05-03T01:28:42.593Z,27.73
2019-05-03T01:31:12.088Z,31.30
2019-05-03T01:33:42.637Z,29.93
2019-05-03T01:36:12.105Z,28.97
2019-05-03T01:38:42.354Z,26.47
2019-05-03T01:41:12.304Z,29.20
2019-05-03T01:43:41.926Z,28.27
2019-05-03T01:46:11.996Z,30.77
2019-05-03T01:49:01.566Z,30.40
2019-05-03T01:51:48.647Z,30.63
2019-05-03T01:54:17.926Z,27.90
2019-05-03T01:56:56.853Z,28.43
2019-05-03T01:59:18.075Z,34.50
2019-05-03T02:02:18.197Z,31.53
2019-05-03T02:04:53.364Z,30.70
2019-05-03T02:07:22.714Z,28.90
2019-05-03T02:09:52.019Z,30.10
2019-05-03T02:12:22.155Z,34.63
2019-05-03T02:14:51.732Z,29.30
2019-05-03T02:17:22.671Z,30.73
2019-05-03T02:19:52.693Z,33.10
2019-05-03T02:22:22.610Z,33.57
2019-05-03T02:24:52.613Z,33.67
2019-05-03T02:27:22.150Z,31.83
2019-05-03T02:29:52.408Z,37.90
2019-05-03T02:32:23.256Z,33.37
2019-05-03T02:34:53.553Z,38.67
2019-05-03T02:37:23.012Z,33.27
2019-05-03T02:39:56.681Z,36.47
2019-05-03T02:42:26.676Z,33.27
2019-05-03T02:44:56.368Z,34.53
2019-05-03T02:47:40.309Z,34.60
2019-05-03T02:50:16.453Z,31.00
2019-05-03T02:52:45.771Z,35.00
2019-05-03T02:55:16.262Z,30.73
2019-05-03T02:57:46.517Z,35.93
2019-05-03T03:00:17.621Z,35.93
2019-05-03T03:02:47.397Z,35.50
2019-05-03T03:05:16.881Z,35.13
2019-05-03T03:07:48.835Z,35.00
2019-05-03T03:10:18.210Z,36.20
2019-05-03T03:12:50.653Z,32.60
2019-05-03T03:15:19.853Z,34.17
2019-05-03T03:17:51.928Z,35.10
2019-05-03T03:20:21.180Z,34.80
2019-05-03T03:22:55.373Z,34.47
2019-05-03T03:25:28.574Z,33.63
2019-05-03T03:28:02.165Z,35.03
2019-05-03T03:31:17.602Z,38.53
2019-05-03T03:33:47.751Z,36.27
2019-05-03T03:36:50.394Z,35.03
2019-05-03T03:38:47.756Z,38.93
2019-05-03T03:41:18.258Z,31.93
2019-05-03T03:43:50.933Z,34.93
2019-05-03T03:46:25.015Z,35.57
2019-05-03T03:48:56.036Z,33.57
2019-05-03T03:51:27.418Z,33.20
2019-05-03T03:53:59.565Z,31.97
2019-05-03T03:56:32.369Z,31.10
2019-05-03T03:59:01.950Z,32.33
2019-05-03T04:01:31.182Z,32.63
2019-05-03T04:04:00.640Z,30.90
2019-05-03T04:06:48.566Z,30.77
2019-05-03T04:09:17.806Z,33.33
2019-05-03T04:11:47.093Z,35.27
2019-05-03T04:14:21.068Z,32.23
2019-05-03T04:17:15.404Z,111.60
2019-05-03T04:19:45.671Z,46.30
2019-05-03T04:22:16.406Z,32.33
2019-05-03T04:24:46.165Z,30.43
2019-05-03T04:27:22.958Z,32.23
2019-05-03T04:29:47.687Z,43.53
2019-05-03T04:32:16.948Z,178.00
2019-05-03T04:34:46.140Z,40.97
2019-05-03T04:37:16.139Z,33.43
2019-05-03T04:39:46.120Z,30.80
2019-05-03T04:42:16.480Z,27.60
2019-05-03T04:44:46.137Z,32.97
2019-05-03T04:47:15.933Z,30.27
2019-05-03T04:49:46.334Z,30.43
2019-05-03T04:52:16.642Z,30.63
2019-05-03T04:54:51.261Z,30.10
2019-05-03T04:57:34.949Z,33.53
2019-05-03T04:59:51.594Z,29.40
2019-05-03T05:02:20.978Z,27.93
2019-05-03T05:04:50.214Z,27.50
2019-05-03T05:07:19.375Z,26.03
2019-05-03T05:09:48.550Z,28.43
2019-05-03T05:12:17.798Z,28.87
2019-05-03T05:14:46.958Z,30.73
2019-05-03T05:17:20.856Z,27.67
2019-05-03T05:19:57.444Z,31.70
2019-05-03T05:22:29.441Z,35.93
2019-05-03T05:25:00.292Z,27.23
2019-05-03T05:27:48.868Z,26.27
2019-05-03T05:30:14.819Z,26.23
2019-05-03T05:32:45.393Z,28.97
2019-05-03T05:35:14.764Z,29.43
2019-05-03T05:37:44.432Z,27.63
2019-05-03T05:40:15.575Z,28.83
2019-05-03T05:42:45.412Z,24.70
2019-05-03T05:45:15.299Z,30.87
2019-05-03T05:47:50.589Z,44.57
2019-05-03T05:50:29.321Z,28.87
2019-05-03T05:52:58.497Z,26.97
2019-05-03T05:55:40.790Z,26.67
2019-05-03T05:58:34.641Z,28.13
2019-05-03T06:01:15.116Z,25.73
2019-05-03T06:03:44.922Z,27.53
2019-05-03T06:06:19.689Z,27.00
2019-05-03T06:08:55.147Z,25.27
2019-05-03T06:11:45.018Z,24.43
2019-05-03T06:14:34.687Z,25.47
2019-05-03T06:17:14.629Z,25.47
2019-05-03T06:19:49.106Z,23.00
2019-05-03T06:22:28.771Z,26.80
2019-05-03T06:25:06.090Z,25.97
2019-05-03T06:27:38.340Z,27.67
2019-05-03T06:30:28.860Z,23.50
2019-05-03T06:32:58.131Z,25.47
2019-05-03T06:35:27.693Z,23.30
2019-05-03T06:37:56.878Z,21.73
2019-05-03T06:40:26.145Z,22.30
2019-05-03T06:43:08.467Z,24.17
2019-05-03T06:45:26.496Z,21.87
2019-05-03T06:47:55.722Z,21.47
2019-05-03T06:50:28.838Z,20.80
2019-05-03T06:52:59.921Z,23.10
2019-05-03T06:55:26.969Z,20.83
2019-05-03T06:57:56.263Z,18.37
2019-05-03T07:00:37.015Z,18.67
2019-05-03T07:03:16.196Z,16.87
2019-05-03T07:06:04.505Z,15.33
2019-05-03T07:08:46.894Z,18.50
2019-05-03T07:11:15.448Z,16.90
2019-05-03T07:13:45.023Z,17.87
2019-05-03T07:16:14.983Z,18.07
2019-05-03T07:18:45.454Z,16.47
2019-05-03T07:21:15.311Z,16.13
2019-05-03T07:23:45.105Z,18.40
2019-05-03T07:26:15.121Z,17.77
2019-05-03T07:28:49.248Z,20.27
2019-05-03T07:31:15.599Z,21.13
2019-05-03T07:33:44.778Z,20.50
2019-05-03T07:36:15.232Z,17.97
2019-05-03T07:38:45.445Z,20.10
2019-05-03T07:41:15.530Z,18.20
2019-05-03T07:43:45.163Z,18.50
2019-05-03T07:46:14.805Z,19.43
2019-05-03T07:48:45.699Z,18.50
2019-05-03T07:51:15.317Z,20.33
2019-05-03T07:53:45.086Z,18.33
2019-05-03T07:56:16.273Z,17.37
2019-05-03T07:59:00.596Z,19.30
2019-05-03T08:01:32.293Z,15.43
2019-05-03T08:04:01.936Z,16.50
2019-05-03T08:06:31.261Z,16.37
2019-05-03T08:09:00.572Z,14.33
2019-05-03T08:11:29.725Z,15.27
2019-05-03T08:13:58.916Z,17.40
2019-05-03T08:16:28.143Z,13.03
2019-05-03T08:18:57.337Z,15.73
2019-05-03T08:21:26.528Z,14.97
2019-05-03T08:23:55.869Z,18.10
2019-05-03T08:26:25.908Z,14.60
2019-05-03T08:28:55.757Z,15.47
2019-05-03T08:31:36.649Z,14.90
2019-05-03T08:34:25.730Z,14.33
2019-05-03T08:37:05.617Z,12.67
2019-05-03T08:39:35.657Z,17.33
2019-05-03T08:42:12.040Z,15.33
2019-05-03T08:44:45.202Z,13.20
2019-05-03T08:47:15.499Z,13.70
2019-05-03T08:49:45.115Z,13.63
2019-05-03T08:52:15.757Z,13.80
2019-05-03T08:54:45.153Z,11.27
2019-05-03T08:57:15.018Z,11.93
2019-05-03T08:59:44.686Z,11.57
2019-05-03T09:02:17.277Z,14.23
2019-05-03T09:04:46.277Z,11.17
2019-05-03T09:07:15.912Z,11.20
2019-05-03T09:09:58.938Z,13.50
2019-05-03T09:12:47.144Z,13.17
2019-05-03T09:15:16.535Z,10.50
2019-05-03T09:17:45.905Z,10.40
2019-05-03T09:20:15.615Z,10.93
2019-05-03T09:22:45.555Z,10.63
2019-05-03T09:25:15.585Z,12.83
2019-05-03T09:27:45.115Z,11.30
2019-05-03T09:30:14.792Z,10.70
2019-05-03T09:32:44.867Z,15.30
2019-05-03T09:35:29.036Z,13.73
2019-05-03T09:37:46.650Z,11.10
2019-05-03T09:40:15.820Z,15.17
2019-05-03T09:42:45.013Z,9.43
2019-05-03T09:45:15.341Z,10.53
2019-05-03T09:47:45.240Z,10.60
2019-05-03T09:50:15.655Z,10.63
2019-05-03T09:53:05.430Z,9.53
2019-05-03T09:55:38.369Z,10.23
2019-05-03T09:58:07.597Z,11.30
2019-05-03T10:00:36.977Z,11.03
2019-05-03T10:03:06.440Z,13.70
2019-05-03T10:05:36.585Z,10.73
2019-05-03T10:08:05.815Z,10.60
2019-05-03T10:10:53.151Z,9.43
2019-05-03T10:13:23.864Z,9.47
2019-05-03T10:15:54.948Z,10.53
2019-05-03T10:18:25.406Z,11.00
2019-05-03T10:20:56.174Z,10.83
2019-05-03T10:23:45.144Z,9.33
2019-05-03T10:26:15.189Z,8.93
2019-05-03T10:28:44.498Z,8.43
2019-05-03T10:31:14.671Z,10.00
2019-05-03T10:34:15.574Z,8.63
2019-05-03T10:36:44.936Z,9.43
2019-05-03T10:39:15.482Z,10.17
2019-05-03T10:41:45.340Z,8.83
2019-05-03T10:44:15.180Z,8.80
2019-05-03T10:46:45.304Z,10.97
2019-05-03T10:49:15.401Z,11.50
2019-05-03T10:51:49.157Z,11.90
2019-05-03T10:54:18.349Z,11.50
2019-05-03T10:56:55.942Z,9.30
2019-05-03T10:59:25.325Z,11.33
2019-05-03T11:02:10.016Z,10.67
2019-05-03T11:04:39.623Z,8.27
2019-05-03T11:07:08.789Z,7.97
2019-05-03T11:09:48.807Z,8.17
2019-05-03T11:12:09.176Z,7.63
2019-05-03T11:14:38.352Z,8.83
2019-05-03T11:17:07.580Z,8.20
2019-05-03T11:19:36.780Z,11.63
2019-05-03T11:22:06.183Z,9.07
2019-05-03T11:24:35.373Z,8.93
2019-05-03T11:27:08.549Z,8.00
2019-05-03T11:29:37.784Z,10.70
2019-05-03T11:32:19.823Z,6.23
2019-05-03T11:35:15.023Z,8.53
2019-05-03T11:37:48.812Z,6.70
2019-05-03T11:40:18.509Z,6.67
2019-05-03T11:42:48.364Z,7.37
2019-05-03T11:45:18.106Z,7.57
2019-05-03T11:47:47.433Z,7.03
2019-05-03T11:50:16.604Z,6.23
2019-05-03T11:52:47.086Z,5.97
2019-05-03T11:55:16.847Z,5.57
2019-05-03T11:57:46.117Z,6.33
2019-05-03T12:00:21.400Z,6.93
2019-05-03T12:03:04.974Z,6.97
2019-05-03T12:05:34.901Z,6.60
2019-05-03T12:08:05.434Z,6.40
2019-05-03T12:10:49.732Z,6.23
2019-05-03T12:13:10.730Z,4.57
2019-05-03T12:15:40.103Z,5.77
2019-05-03T12:18:10.771Z,5.47
2019-05-03T12:20:41.246Z,6.43
2019-05-03T12:23:11.918Z,5.63
2019-05-03T12:25:42.262Z,5.40
2019-05-03T12:28:15.177Z,5.33
2019-05-03T12:30:44.866Z,5.20
2019-05-03T12:33:15.364Z,4.80
2019-05-03T12:35:46.177Z,6.37
2019-05-03T12:38:16.457Z,6.47
2019-05-03T12:40:46.042Z,7.63
2019-05-03T12:43:15.264Z,7.77
2019-05-03T12:45:44.448Z,7.33
2019-05-03T12:48:15.540Z,6.13
2019-05-03T12:50:46.464Z,5.27
2019-05-03T12:53:15.497Z,8.97
2019-05-03T12:55:44.737Z,8.57
2019-05-03T12:58:15.060Z,5.77
2019-05-03T13:01:12.655Z,7.43
2019-05-03T13:03:50.764Z,65.37
2019-05-03T13:06:20.057Z,13.80
2019-05-03T13:08:49.332Z,14.47
2019-05-03T13:11:18.840Z,22.63
2019-05-03T13:13:48.389Z,19.50
2019-05-03T13:16:20.047Z,15.27
2019-05-03T13:18:49.360Z,5.60
2019-05-03T13:21:19.037Z,4.90
2019-05-03T13:23:48.433Z,6.37
2019-05-03T13:26:17.699Z,5.10
2019-05-03T13:28:46.965Z,6.63
2019-05-03T13:31:16.274Z,6.57
2019-05-03T13:33:45.626Z,5.80
2019-05-03T13:36:15.261Z,7.13
2019-05-03T13:38:45.285Z,6.63
2019-05-03T13:41:14.642Z,4.33
2019-05-03T13:43:45.497Z,28.40
2019-05-03T13:46:15.751Z,7.53
2019-05-03T13:48:48.474Z,7.93
2019-05-03T13:51:16.377Z,6.03
2019-05-03T13:53:45.666Z,6.23
2019-05-03T13:56:15.277Z,4.67
2019-05-03T13:58:44.709Z,5.63
2019-05-03T14:01:14.849Z,7.63
2019-05-03T14:03:45.204Z,7.93
2019-05-03T14:06:14.686Z,7.40
2019-05-03T14:08:45.458Z,5.90
2019-05-03T14:11:15.552Z,4.70
2019-05-03T14:13:45.261Z,7.73
2019-05-03T14:16:14.562Z,4.90
2019-05-03T14:18:45.666Z,5.20
2019-05-03T14:21:26.781Z,6.70
2019-05-03T14:24:24.648Z,6.90
2019-05-03T14:26:55.176Z,6.43
2019-05-03T14:29:25.294Z,6.07
2019-05-03T14:31:54.794Z,5.73
2019-05-03T14:34:25.756Z,5.27
2019-05-03T14:36:55.546Z,4.83
2019-05-03T14:39:25.404Z,3.90
2019-05-03T14:41:55.550Z,5.10
2019-05-03T14:44:25.285Z,3.90
2019-05-03T14:46:58.825Z,3.77
2019-05-03T14:49:26.163Z,3.80
2019-05-03T14:51:56.762Z,8.17
2019-05-03T14:54:28.287Z,5.40
2019-05-03T14:57:21.145Z,4.17
2019-05-03T15:00:17.064Z,5.20
2019-05-03T15:02:57.963Z,4.23
2019-05-03T15:05:27.891Z,3.87
2019-05-03T15:07:57.076Z,2.80
2019-05-03T15:10:26.292Z,3.80
2019-05-03T15:12:55.725Z,3.87
2019-05-03T15:15:25.144Z,4.87
2019-05-03T15:17:55.033Z,4.00
2019-05-03T15:20:25.584Z,4.17
2019-05-03T15:22:55.334Z,7.20
2019-05-03T15:25:25.138Z,4.23
2019-05-03T15:27:55.439Z,4.30
2019-05-03T15:30:25.560Z,4.10
2019-05-03T15:33:00.400Z,3.87
2019-05-03T15:35:26.368Z,5.97
2019-05-03T15:37:55.879Z,4.80
2019-05-03T15:40:25.744Z,3.53
2019-05-03T15:43:07.664Z,4.13
2019-05-03T15:45:54.741Z,5.47
2019-05-03T15:48:27.029Z,5.10
2019-05-03T15:50:57.598Z,4.90
2019-05-03T15:53:27.162Z,6.00
2019-05-03T15:55:56.366Z,4.87
2019-05-03T15:58:25.685Z,5.33
2019-05-03T16:00:55.553Z,4.60
2019-05-03T16:03:25.217Z,3.33
2019-05-03T16:05:55.618Z,4.40
2019-05-03T16:08:25.163Z,3.20
2019-05-03T16:10:54.971Z,3.80
2019-05-03T16:13:25.264Z,4.80
2019-05-03T16:15:55.253Z,4.97
2019-05-03T16:18:24.890Z,5.70
2019-05-03T16:20:54.691Z,3.73
2019-05-03T16:23:25.033Z,5.60
2019-05-03T16:25:54.731Z,5.57
2019-05-03T16:28:31.048Z,4.50
2019-05-03T16:31:05.149Z,3.50
2019-05-03T16:33:34.926Z,5.27
2019-05-03T16:36:05.495Z,4.03
2019-05-03T16:38:35.434Z,7.33
2019-05-03T16:41:05.213Z,6.33
2019-05-03T16:43:34.948Z,4.93
2019-05-03T16:46:05.627Z,5.97
2019-05-03T16:48:35.443Z,5.10
2019-05-03T16:51:04.972Z,4.97
2019-05-03T16:53:35.003Z,5.10
2019-05-03T16:56:04.713Z,5.37
2019-05-03T16:58:35.348Z,5.03
2019-05-03T17:01:04.885Z,6.53
2019-05-03T17:03:42.307Z,5.03
2019-05-03T17:06:31.204Z,5.20
2019-05-03T17:09:22.483Z,4.10
2019-05-03T17:12:10.441Z,7.30
2019-05-03T17:14:39.652Z,3.87
2019-05-03T17:17:08.912Z,9.00
2019-05-03T17:19:38.183Z,6.80
2019-05-03T17:22:07.372Z,6.00
2019-05-03T17:24:36.739Z,6.77
2019-05-03T17:27:06.060Z,10.83
2019-05-03T17:29:35.269Z,5.10
2019-05-03T17:32:05.087Z,3.60
2019-05-03T17:34:34.745Z,3.73
2019-05-03T17:37:05.002Z,3.50
2019-05-03T17:40:12.112Z,3.90
2019-05-03T17:43:22.443Z,4.33
2019-05-03T17:45:55.104Z,4.30
2019-05-03T17:48:24.590Z,7.50
2019-05-03T17:50:55.086Z,4.93
2019-05-03T17:53:45.063Z,3.47
2019-05-03T17:56:25.246Z,4.47
2019-05-03T17:58:57.831Z,3.47
2019-05-03T18:02:06.729Z,6.17
2019-05-03T18:04:55.159Z,2.83
2019-05-03T18:07:38.870Z,2.60
2019-05-03T18:10:09.215Z,3.47
2019-05-03T18:12:38.446Z,2.03
2019-05-03T18:15:08.386Z,5.30
2019-05-03T18:17:37.900Z,15.50
2019-05-03T18:20:07.125Z,48.00
2019-05-03T18:22:36.377Z,10.23
2019-05-03T18:25:06.504Z,3.23
2019-05-03T18:27:35.876Z,3.13
2019-05-03T18:30:05.809Z,2.97
2019-05-03T18:32:35.434Z,4.50
2019-05-03T18:35:05.419Z,3.90
2019-05-03T18:37:35.038Z,27.40
2019-05-03T18:40:05.031Z,9.17
2019-05-03T18:42:40.298Z,4.27
2019-05-03T18:45:38.930Z,3.73
2019-05-03T18:48:08.628Z,3.00
2019-05-03T18:50:38.003Z,4.80
2019-05-03T18:53:07.200Z,3.10
2019-05-03T18:55:36.457Z,3.30
2019-05-03T18:58:05.720Z,2.97
2019-05-03T19:00:35.168Z,3.07
2019-05-03T19:03:04.481Z,3.57
2019-05-03T19:05:35.488Z,3.47
2019-05-03T19:08:27.812Z,5.40
2019-05-03T19:11:01.543Z,3.10
2019-05-03T19:13:34.640Z,3.80
2019-05-03T19:16:14.955Z,2.77
2019-05-03T19:18:45.371Z,2.97
2019-05-03T19:21:15.096Z,6.10
2019-05-03T19:23:44.798Z,2.70
2019-05-03T19:26:14.549Z,3.40
2019-05-03T19:28:44.438Z,4.07
2019-05-03T19:31:14.353Z,3.50
2019-05-03T19:33:45.556Z,4.13
2019-05-03T19:36:14.540Z,2.83
2019-05-03T19:38:43.790Z,8.47
2019-05-03T19:41:16.037Z,4.03
2019-05-03T19:43:44.535Z,3.77
2019-05-03T19:46:13.873Z,4.33
2019-05-03T19:48:45.227Z,4.70
2019-05-03T19:51:14.169Z,3.07
2019-05-03T19:53:51.224Z,4.83
2019-05-03T19:56:21.576Z,5.27
2019-05-03T19:58:59.024Z,5.73
2019-05-03T20:01:46.877Z,6.27
2019-05-03T20:04:35.104Z,5.20
2019-05-03T20:07:29.884Z,4.00
2019-05-03T20:09:59.332Z,5.70
2019-05-03T20:12:28.642Z,4.93
2019-05-03T20:14:57.879Z,4.50
2019-05-03T20:17:27.240Z,3.67
2019-05-03T20:19:56.418Z,3.53
2019-05-03T20:22:25.608Z,2.87
2019-05-03T20:24:55.240Z,4.07
2019-05-03T20:27:24.759Z,4.00
2019-05-03T20:29:55.477Z,29.87
2019-05-03T20:32:25.296Z,23.73
2019-05-03T20:34:55.106Z,32.23
2019-05-03T20:37:25.154Z,9.80
2019-05-03T20:39:54.554Z,5.40
2019-05-03T20:42:41.870Z,5.63
2019-05-03T20:45:16.380Z,9.17
2019-05-03T20:47:50.197Z,5.10
2019-05-03T20:50:19.460Z,6.97
2019-05-03T20:52:48.653Z,4.70
2019-05-03T20:55:17.814Z,5.83
2019-05-03T20:57:47.169Z,4.40
2019-05-03T21:00:19.694Z,6.93
2019-05-03T21:02:53.834Z,4.63
2019-05-03T21:05:29.639Z,4.20
2019-05-03T21:07:51.361Z,5.50
2019-05-03T21:10:20.745Z,3.97
2019-05-03T21:12:49.923Z,4.53
2019-05-03T21:15:27.784Z,4.40
2019-05-03T21:18:07.640Z,7.87
2019-05-03T21:20:50.444Z,42.97
2019-05-03T21:23:21.091Z,23.73
2019-05-03T21:26:12.452Z,8.77
2019-05-03T21:28:36.810Z,7.43
2019-05-03T21:31:06.349Z,7.47
2019-05-03T21:33:35.667Z,6.73
2019-05-03T21:36:04.996Z,5.67
2019-05-03T21:38:35.549Z,3.90
2019-05-03T21:41:05.384Z,4.03
2019-05-03T21:43:35.289Z,4.87
2019-05-03T21:46:15.517Z,6.60
2019-05-03T21:48:55.266Z,7.17
2019-05-03T21:51:24.617Z,5.37
2019-05-03T21:53:54.092Z,4.80
2019-05-03T21:56:24.960Z,5.13
2019-05-03T21:58:55.344Z,5.87
2019-05-03T22:01:25.888Z,4.47
2019-05-03T22:03:55.380Z,5.93
2019-05-03T22:06:24.796Z,11.73
2019-05-03T22:08:55.417Z,12.93
2019-05-03T22:11:25.266Z,13.50
2019-05-03T22:13:57.087Z,5.50
2019-05-03T22:16:55.382Z,5.80
2019-05-03T22:19:25.034Z,4.80
2019-05-03T22:22:12.311Z,6.77
2019-05-03T22:24:48.433Z,5.83
2019-05-03T22:27:19.680Z,4.93
2019-05-03T22:29:48.870Z,6.13
2019-05-03T22:32:18.155Z,5.63
2019-05-03T22:34:47.313Z,7.20
2019-05-03T22:37:18.477Z,5.77
2019-05-03T22:39:47.815Z,4.70
2019-05-03T22:42:17.140Z,6.97
2019-05-03T22:44:46.284Z,4.47
2019-05-03T22:47:15.599Z,6.07
2019-05-03T22:49:45.642Z,5.73
2019-05-03T22:52:15.477Z,6.23
2019-05-03T22:54:45.199Z,5.90
2019-05-03T22:57:15.330Z,7.20
2019-05-03T22:59:44.979Z,5.63
2019-05-03T23:02:16.715Z,4.63
2019-05-03T23:04:45.809Z,4.73
2019-05-03T23:07:15.068Z,5.60
2019-05-03T23:09:44.616Z,5.77
2019-05-03T23:12:13.996Z,4.87
2019-05-03T23:14:44.700Z,6.73
2019-05-03T23:17:15.058Z,5.10
2019-05-03T23:19:46.937Z,6.00
2019-05-03T23:22:24.578Z,7.50
2019-05-03T23:24:54.822Z,7.10
2019-05-03T23:27:24.992Z,6.97
2019-05-03T23:29:54.662Z,8.30
2019-05-03T23:32:24.509Z,8.13
2019-05-03T23:34:54.392Z,6.73
2019-05-03T23:37:23.866Z,7.47
2019-05-03T23:39:54.997Z,7.63
2019-05-03T23:42:24.504Z,6.80
2019-05-03T23:44:53.873Z,7.83
2019-05-03T23:47:48.156Z,7.60
2019-05-03T23:50:19.582Z,7.87
2019-05-03T23:52:48.833Z,7.90
2019-05-03T23:55:34.605Z,9.13
2019-05-03T23:58:04.849Z,10.40
